Atterbury, Illinois
Current Conditions -  °F | °C
As of 3:52 AM on Sunday 23 Nov 2014 (Local Time) from KSPI Reporting Station
Overcast Overcast  
Wind Chill: 53°   Ceiling: 9000
Heat Index: 53°   Visibility: 10mi
Dew Point: 43°   Wind: 15mph
Humidity: 69%   Direction: 170°S
Pressure: 29.76"   Gusts: NA
Location:  40.0452°N, 89.8548°W
Report Text: KSPI 230952Z AUTO 17013KT 10SM OVC090 12/06 A2976 RMK AO2 SLP076 T01170061
Loading
Personal Weather Stations






























Interactive Weather Map New forecast layout! Learn more

10-Day Weather Forecast

Advertisements
Track Severe Weather on mobile